Morpeth, United Kingdom
Current Conditions -  °F | °C
As of 4:20 PM on Friday 31 Oct 2014 (Local Time) from EGNT Reporting Station
Few Clouds Few Clouds  
Wind Chill: 64°   Ceiling: Unl
Heat Index: 64°   Visibility: 5mi
Dew Point: 55°   Wind: 7mph
Humidity: 73%   Direction: 160°SSE
Pressure: 29.74"   Gusts: NA
Location:  55.17°N, 1.69°W
Report Text: EGNT 311620Z 16006KT 110V200 8000 FEW025 18/13 Q1007
Loading
Personal Weather Stations






























Interactive Weather Map
Tropical Storm Tracking
New forecast layout! Learn more

10-Day Weather Forecast

Advertisements
Track Severe Weather on mobile